Time;durP1;ratioP1;P1;durP2;ratioP2;P2;SDS_P1;SDS_P2;PMS_P1;PMS_P2;Temp;Humidity;BMP_temperature;BMP_pressure;BME280_temperature;BME280_humidity;BME280_pressure;Samples;Min_cycle;Max_cycle;Signal;HPM_P1;HPM_P2
2021/03/07 00:00:45;;;;;;;7.72;4.05;;;-0.90;97.20;;;;;;5075311;28;20209;-87
2021/03/07 00:03:12;;;;;;;8.50;5.53;;;;;;;;;;5076377;28;20237;-88
2021/03/07 00:05:39;;;;;;;11.70;5.22;;;;;;;;;;5076597;28;20205;-88
2021/03/07 00:08:06;;;;;;;8.70;5.10;;;-0.80;97.40;;;;;;5076095;28;20649;-86
2021/03/07 00:10:33;;;;;;;7.38;4.32;;;-0.90;97.80;;;;;;5076551;28;20209;-86
2021/03/07 00:13:00;;;;;;;8.48;4.95;;;;;;;;;;5076412;28;20233;-86
2021/03/07 00:15:26;;;;;;;11.73;7.15;;;;;;;;;;5074785;28;20278;-87
2021/03/07 00:17:53;;;;;;;10.65;7.20;;;;;;;;;;5076009;28;20241;-87
2021/03/07 00:20:22;;;;;;;8.15;5.20;;;-1.00;97.60;;;;;;5075459;28;20808;-87
2021/03/07 00:22:49;;;;;;;8.68;5.55;;;-1.00;98.90;;;;;;5076270;28;20247;-87
2021/03/07 00:25:17;;;;;;;7.05;5.47;;;-1.00;99.70;;;;;;5078272;28;20205;-87
2021/03/07 00:27:45;;;;;;;7.47;4.57;;;-1.00;98.00;;;;;;5075347;28;20261;-86
2021/03/07 00:30:14;;;;;;;7.35;4.90;;;-1.00;98.50;;;;;;5074713;28;20209;-86
2021/03/07 00:32:42;;;;;;;7.32;4.40;;;-1.00;98.00;;;;;;5075508;28;20236;-87
2021/03/07 00:35:10;;;;;;;8.55;5.35;;;-0.20;98.80;;;;;;5073717;28;20229;-86
2021/03/07 00:37:37;;;;;;;8.88;5.00;;;;;;;;;;5075626;28;20237;-86
2021/03/07 00:40:04;;;;;;;6.18;3.42;;;-1.20;98.30;;;;;;5075438;28;20266;-86
2021/03/07 00:42:31;;;;;;;4.55;4.13;;;;;;;;;;5090452;28;20208;-87
2021/03/07 00:44:58;;;;;;;9.38;6.00;;;-1.20;98.50;;;;;;5094260;28;20725;-87
2021/03/07 00:47:26;;;;;;;7.72;4.40;;;-1.30;98.50;;;;;;5095622;28;20209;-86
2021/03/07 00:49:52;;;;;;;6.72;4.28;;;;;;;;;;5094443;28;20197;-86
2021/03/07 00:52:19;;;;;;;7.40;4.30;;;-1.30;98.70;;;;;;5095258;28;20601;-88
2021/03/07 00:54:46;;;;;;;9.18;5.63;;;;;;;;;;5095301;28;20644;-87
2021/03/07 00:57:12;;;;;;;11.02;7.80;;;;;;;;;;5095133;28;20240;-84
2021/03/07 00:59:39;;;;;;;11.20;6.85;;;;;;;;;;5093949;28;20208;-89
2021/03/07 01:02:06;;;;;;;7.72;5.13;;;-1.20;98.80;;;;;;5095266;28;20293;-86
2021/03/07 01:04:33;;;;;;;9.60;6.03;;;1.00;99.90;;;;;;5094966;28;20228;-86
2021/03/07 01:07:00;;;;;;;4.75;4.15;;;;;;;;;;5085024;28;20213;-86
2021/03/07 01:09:26;;;;;;;8.18;4.50;;;;;;;;;;5074107;28;20752;-85
2021/03/07 01:11:53;;;;;;;7.35;5.43;;;;;;;;;;5073909;28;20205;-86
2021/03/07 01:14:19;;;;;;;6.28;4.65;;;-1.40;99.90;;;;;;5075373;28;20676;-88
2021/03/07 01:16:46;;;;;;;5.65;4.22;;;;;;;;;;5074430;28;20249;-86
2021/03/07 01:19:13;;;;;;;6.75;5.45;;;-1.40;99.10;;;;;;5081098;28;20208;-86
2021/03/07 01:21:40;;;;;;;5.93;4.90;;;-0.10;99.90;;;;;;5094487;28;20204;-87
2021/03/07 01:24:08;;;;;;;7.57;4.10;;;-1.50;99.60;;;;;;5094204;28;20288;-87
2021/03/07 01:26:35;;;;;;;7.65;4.60;;;;;;;;;;5094499;28;20698;-86
2021/03/07 01:29:01;;;;;;;7.00;5.63;;;-1.70;99.60;;;;;;5093252;28;20323;-86
2021/03/07 01:31:28;;;;;;;5.38;3.50;;;;;;;;;;5094508;28;20220;-86
2021/03/07 01:33:55;;;;;;;10.88;6.00;;;;;;;;;;5094078;28;20287;-87
2021/03/07 01:36:22;;;;;;;6.53;4.65;;;-1.90;99.90;;;;;;5094260;28;20326;-87
2021/03/07 01:38:49;;;;;;;9.27;4.55;;;;;;;;;;5094402;28;20218;-87
2021/03/07 01:41:15;;;;;;;6.65;4.70;;;;;;;;;;5092165;28;20241;-85
2021/03/07 01:43:42;;;;;;;5.85;4.05;;;;;;;;;;5072446;28;20206;-85
2021/03/07 01:46:09;;;;;;;6.90;4.22;;;;;;;;;;5074046;28;20212;-88
2021/03/07 01:48:36;;;;;;;10.40;5.03;;;-1.70;99.90;;;;;;5078956;28;20228;-86
2021/03/07 01:51:03;;;;;;;5.53;4.65;;;;;;;;;;5093955;28;20649;-87
2021/03/07 01:53:31;;;;;;;8.27;4.50;;;-1.60;99.90;;;;;;5093988;28;20200;-87
2021/03/07 01:55:59;;;;;;;5.75;4.43;;;-1.60;99.90;;;;;;5093499;28;20232;-89
2021/03/07 01:58:27;;;;;;;6.60;4.22;;;-1.60;99.90;;;;;;5092675;28;20277;-88
2021/03/07 02:00:54;;;;;;;5.30;4.45;;;;;;;;;;5094253;28;20608;-87
2021/03/07 02:03:21;;;;;;;4.55;3.97;;;;;;;;;;5093803;28;20197;-88
2021/03/07 02:05:48;;;;;;;11.30;4.35;;;;;;;;;;5094183;28;20232;-87
2021/03/07 02:08:16;;;;;;;5.63;4.50;;;-1.70;99.90;;;;;;5093956;28;20282;-88
2021/03/07 02:10:48;;;;;;;5.55;4.25;;;-1.80;99.90;;;;;;5093981;28;20287;-88
2021/03/07 02:13:17;;;;;;;6.70;4.55;;;-1.80;99.90;;;;;;5092747;28;20201;-89
2021/03/07 02:15:49;;;;;;;8.82;4.60;;;-1.90;99.90;;;;;;5093897;28;20224;-88
2021/03/07 02:18:17;;;;;;;6.75;5.18;;;-1.90;99.90;;;;;;5093123;28;20205;-86
2021/03/07 02:20:48;;;;;;;6.85;3.42;;;-2.00;99.90;;;;;;5073268;28;20205;-85
2021/03/07 02:23:19;;;;;;;6.88;4.57;;;-2.00;99.90;;;;;;5072802;28;20247;-84
2021/03/07 02:25:47;;;;;;;7.75;5.30;;;-1.90;99.90;;;;;;5073952;28;20278;-87
2021/03/07 02:28:14;;;;;;;7.15;5.53;;;;;;;;;;5073633;28;20232;-88
2021/03/07 02:30:41;;;;;;;8.07;4.75;;;-2.00;99.90;;;;;;5074582;28;20197;-86
2021/03/07 02:33:13;;;;;;;4.53;3.70;;;-2.00;99.90;;;;;;5073774;28;20616;-86
2021/03/07 02:35:45;;;;;;;7.78;4.10;;;-1.90;99.90;;;;;;5089098;28;20224;-87
2021/03/07 02:38:14;;;;;;;5.07;3.80;;;-2.00;99.90;;;;;;5096668;28;20185;-84
2021/03/07 02:40:41;;;;;;;5.13;3.25;;;;;;;;;;5081346;28;20210;-85
2021/03/07 02:43:13;;;;;;;4.88;3.80;;;-1.90;99.90;;;;;;5100853;28;20216;-86
2021/03/07 02:45:43;;;;;;;9.15;4.70;;;-1.90;99.90;;;;;;5118593;28;20211;-87
2021/03/07 02:48:13;;;;;;;4.05;3.53;;;-2.80;99.90;;;;;;5118784;28;20192;-87
2021/03/07 02:50:40;;;;;;;8.82;5.03;;;-2.00;99.90;;;;;;5102766;28;20204;-85
2021/03/07 02:53:24;;;;;;;9.07;4.97;;;-2.00;99.90;;;;;;5099088;28;20197;-86
2021/03/07 02:55:56;;;;;;;6.20;3.55;;;-2.00;99.90;;;;;;5094071;28;20224;-84
2021/03/07 02:58:24;;;;;;;6.32;4.90;;;-2.00;99.90;;;;;;5092587;28;20672;-85
2021/03/07 03:00:55;;;;;;;6.47;3.80;;;-2.10;99.90;;;;;;5093766;28;20232;-86
2021/03/07 03:03:27;;;;;;;7.68;4.63;;;-2.10;99.90;;;;;;5093752;28;20201;-86
2021/03/07 03:05:54;;;;;;;7.03;3.78;;;;;;;;;;5093061;28;20617;-85
2021/03/07 03:08:23;;;;;;;9.32;4.80;;;-2.10;99.90;;;;;;5092742;28;20209;-84
2021/03/07 03:10:51;;;;;;;9.30;3.80;;;-2.00;99.90;;;;;;5093260;28;20291;-86
2021/03/07 03:13:19;;;;;;;9.05;4.63;;;0.20;99.90;;;;;;5092377;28;20253;-84
2021/03/07 03:15:48;;;;;;;4.85;3.40;;;-2.10;99.90;;;;;;5096280;28;20654;-85
2021/03/07 03:18:16;;;;;;;4.90;3.67;;;-2.00;99.90;;;;;;5092199;28;20201;-85
2021/03/07 03:20:42;;;;;;;6.82;4.38;;;;;;;;;;5093318;28;20236;-87
2021/03/07 03:23:09;;;;;;;5.15;3.97;;;;;;;;;;5093282;28;20649;-85
2021/03/07 03:25:36;;;;;;;5.38;4.10;;;;;;;;;;5092426;28;20228;-86
2021/03/07 03:28:04;;;;;;;4.30;3.90;;;-2.00;99.90;;;;;;5092893;28;20236;-85
2021/03/07 03:30:31;;;;;;;5.50;4.00;;;;;;;;;;5093778;28;20289;-85
2021/03/07 03:32:58;;;;;;;5.63;3.15;;;-2.00;99.90;;;;;;5095205;28;20200;-86
2021/03/07 03:35:25;;;;;;;8.10;5.45;;;;;;;;;;5090791;28;20224;-85
2021/03/07 03:37:52;;;;;;;5.70;3.90;;;;;;;;;;5096555;28;20562;-85
2021/03/07 03:40:21;;;;;;;5.90;3.40;;;-2.20;99.90;;;;;;5097032;28;20652;-85
2021/03/07 03:42:53;;;;;;;8.07;4.03;;;-2.00;99.90;;;;;;5088365;28;20232;-85
2021/03/07 03:45:20;;;;;;;4.75;3.22;;;-2.00;99.90;;;;;;5074694;28;20732;-85
2021/03/07 03:47:50;;;;;;;5.22;3.00;;;-1.90;99.90;;;;;;5076344;28;20205;-86
2021/03/07 03:50:19;;;;;;;4.10;3.70;;;-1.90;99.90;;;;;;5093792;28;20213;-85
2021/03/07 03:52:48;;;;;;;5.30;4.10;;;-1.90;99.90;;;;;;5096501;28;20257;-84
2021/03/07 03:55:20;;;;;;;4.85;3.85;;;-1.90;99.90;;;;;;5096314;28;20221;-84
2021/03/07 03:57:48;;;;;;;10.18;3.50;;;;;;;;;;5096531;28;20266;-85
2021/03/07 04:00:19;;;;;;;6.43;3.50;;;-2.00;99.90;;;;;;5094872;28;20207;-84
2021/03/07 04:02:47;;;;;;;5.72;3.55;;;-2.10;99.90;;;;;;5095510;28;20201;-84
2021/03/07 04:05:19;;;;;;;6.05;3.92;;;-2.20;99.90;;;;;;5095935;28;20204;-84
2021/03/07 04:07:46;;;;;;;4.13;3.72;;;;;;;;;;5095801;28;20197;-84
2021/03/07 04:10:16;;;;;;;5.05;3.33;;;-2.20;99.90;;;;;;5096117;28;20201;-84
2021/03/07 04:12:43;;;;;;;10.70;3.83;;;-0.40;99.90;;;;;;5079888;28;20206;-84
2021/03/07 04:15:11;;;;;;;7.80;3.97;;;0.00;99.90;;;;;;5074110;28;20221;-84
2021/03/07 04:17:38;;;;;;;9.43;4.43;;;-2.20;99.90;;;;;;5075622;28;20205;-84
2021/03/07 04:20:07;;;;;;;5.00;3.72;;;-0.30;99.90;;;;;;5092601;28;20238;-85
2021/03/07 04:22:34;;;;;;;3.75;3.25;;;-2.20;99.90;;;;;;5096854;28;20315;-85
2021/03/07 04:25:01;;;;;;;6.15;4.07;;;;;;;;;;5096380;28;20232;-85
2021/03/07 04:27:29;;;;;;;6.97;4.25;;;-2.20;99.90;;;;;;5095674;28;20200;-84
2021/03/07 04:29:56;;;;;;;6.93;3.08;;;;;;;;;;5094452;28;20208;-85
2021/03/07 04:32:22;;;;;;;5.90;3.85;;;;;;;;;;5095714;28;20230;-85
2021/03/07 04:34:49;;;;;;;3.88;2.90;;;;;;;;;;5095578;28;20205;-85
2021/03/07 04:37:16;;;;;;;8.60;4.13;;;;;;;;;;5095802;28;20671;-87
2021/03/07 04:39:43;;;;;;;4.70;2.80;;;-2.20;99.90;;;;;;5095288;28;20201;-87
2021/03/07 04:42:10;;;;;;;4.18;3.28;;;-2.00;99.90;;;;;;5095513;28;20205;-87
2021/03/07 04:44:37;;;;;;;5.75;3.45;;;;;;;;;;5093245;28;20216;-87
2021/03/07 04:47:04;;;;;;;5.80;3.35;;;;;;;;;;5094515;28;20208;-84
2021/03/07 04:49:30;;;;;;;6.60;3.92;;;;;;;;;;5094781;28;20204;-84
2021/03/07 04:51:57;;;;;;;7.90;4.28;;;;;;;;;;5095385;28;20246;-85
2021/03/07 04:54:24;;;;;;;3.95;3.30;;;;;;;;;;5095409;28;20205;-86
2021/03/07 04:56:51;;;;;;;6.90;3.53;;;-1.80;99.90;;;;;;5094568;28;20236;-86
2021/03/07 04:59:18;;;;;;;5.97;5.13;;;;;;;;;;5094092;28;20208;-84
2021/03/07 05:01:45;;;;;;;7.18;3.60;;;;;;;;;;5096481;28;20231;-84
2021/03/07 05:04:11;;;;;;;4.85;3.55;;;-2.10;99.90;;;;;;5074783;28;20210;-84
2021/03/07 05:06:39;;;;;;;9.23;3.92;;;;;;;;;;5073558;28;20208;-85
2021/03/07 05:09:08;;;;;;;10.80;4.55;;;-2.10;99.90;;;;;;5074763;28;20205;-86
2021/03/07 05:11:36;;;;;;;5.43;3.80;;;-2.20;99.90;;;;;;5074222;28;20206;-85
2021/03/07 05:14:04;;;;;;;7.18;4.40;;;-1.70;99.90;;;;;;5073292;28;20206;-85
2021/03/07 05:16:32;;;;;;;5.97;3.72;;;-2.10;99.90;;;;;;5074720;28;20256;-84
2021/03/07 05:18:59;;;;;;;4.05;3.53;;;;;;;;;;5074484;28;20785;-85
2021/03/07 05:21:26;;;;;;;12.05;5.00;;;;;;;;;;5074769;28;20206;-85
2021/03/07 05:23:54;;;;;;;5.18;3.50;;;;;;;;;;5074530;28;20201;-85
2021/03/07 05:26:21;;;;;;;7.03;3.90;;;;;;;;;;5074501;28;20209;-86
2021/03/07 05:28:47;;;;;;;7.10;2.80;;;;;;;;;;5073370;28;20229;-85
2021/03/07 05:31:15;;;;;;;9.43;3.85;;;-2.30;99.90;;;;;;5074052;28;20202;-86
2021/03/07 05:33:42;;;;;;;6.78;4.30;;;;;;;;;;5074389;28;20209;-86
2021/03/07 05:36:08;;;;;;;5.95;3.00;;;;;;;;;;5074371;28;20261;-86
2021/03/07 05:38:35;;;;;;;7.20;4.30;;;;;;;;;;5074308;28;20202;-86
2021/03/07 05:41:02;;;;;;;4.88;3.05;;;-2.30;99.90;;;;;;5074289;28;20201;-85
2021/03/07 05:43:29;;;;;;;5.00;3.30;;;;;;;;;;5078405;28;21123;-85
2021/03/07 05:45:58;;;;;;;6.35;4.60;;;;;;;;;;5094554;28;20247;-85
2021/03/07 05:48:29;;;;;;;6.55;3.67;;;-2.20;99.90;;;;;;5091513;28;20401;-86
2021/03/07 05:50:55;;;;;;;8.65;3.85;;;-2.20;99.90;;;;;;5073732;28;20202;-85
2021/03/07 05:53:22;;;;;;;4.97;3.17;;;;;;;;;;5071497;28;20197;-84
2021/03/07 05:55:50;;;;;;;5.63;4.93;;;-2.20;99.90;;;;;;5074017;28;20272;-85
2021/03/07 05:58:17;;;;;;;3.47;2.47;;;-2.20;99.90;;;;;;5080879;28;20239;-86
2021/03/07 06:00:48;;;;;;;7.70;3.80;;;;;;;;;;5093703;28;20214;-85
2021/03/07 06:03:15;;;;;;;5.07;4.03;;;;;;;;;;5093974;28;20676;-85
2021/03/07 06:05:43;;;;;;;6.55;3.75;;;-2.20;99.90;;;;;;5093931;28;20239;-85
2021/03/07 06:08:10;;;;;;;5.68;3.13;;;;;;;;;;5094096;28;20288;-85
2021/03/07 06:10:41;;;;;;;3.55;3.25;;;-2.20;99.90;;;;;;5093970;28;20222;-85
2021/03/07 06:13:10;;;;;;;4.15;3.75;;;-2.20;99.90;;;;;;5093677;28;20205;-85
2021/03/07 06:15:37;;;;;;;6.90;4.40;;;;;;;;;;5092999;28;20307;-85
2021/03/07 06:18:12;;;;;;;9.02;4.35;;;;;;;;;;5093754;28;20277;-86
2021/03/07 06:20:39;;;;;;;8.48;4.13;;;;;;;;;;5094684;28;20266;-85
2021/03/07 06:23:06;;;;;;;4.53;3.42;;;;;;;;;;5094596;28;20621;-85
2021/03/07 06:25:34;;;;;;;5.60;3.25;;;;;;;;;;5095094;28;20212;-85
2021/03/07 06:28:01;;;;;;;5.28;3.90;;;;;;;;;;5095567;28;20236;-85
2021/03/07 06:30:30;;;;;;;5.10;4.30;;;-2.00;99.90;;;;;;5097010;27;20217;-86
2021/03/07 06:32:59;;;;;;;5.15;4.45;;;-2.00;99.90;;;;;;5095725;28;20216;-86
2021/03/07 06:35:27;;;;;;;5.03;3.53;;;-1.90;99.90;;;;;;5096482;28;20579;-84
2021/03/07 06:37:56;;;;;;;6.03;3.33;;;-1.80;99.90;;;;;;5110336;28;20208;-85
2021/03/07 06:40:26;;;;;;;4.13;3.33;;;-1.80;99.90;;;;;;5112526;28;20197;-86
2021/03/07 06:42:53;;;;;;;6.85;3.47;;;;;;;;;;5114786;28;20227;-84
2021/03/07 06:45:21;;;;;;;6.25;3.60;;;;;;;;;;5117722;28;20193;-83
2021/03/07 06:47:58;;;;;;;5.70;3.38;;;-1.40;99.90;;;;;;5119012;28;20205;-86
2021/03/07 06:50:25;;;;;;;5.35;3.30;;;-1.40;99.90;;;;;;5098116;28;20177;-86
2021/03/07 06:52:53;;;;;;;4.85;3.90;;;;;;;;;;5096294;28;20190;-86
2021/03/07 06:55:21;;;;;;;5.35;4.70;;;-1.30;99.90;;;;;;5097737;28;20204;-85
2021/03/07 06:57:49;;;;;;;9.00;3.40;;;-1.10;99.90;;;;;;5098932;28;20209;-87
2021/03/07 07:00:16;;;;;;;5.85;3.55;;;1.00;99.90;;;;;;5116904;28;20201;-80
2021/03/07 07:03:05;;;;;;;4.95;3.25;;;-1.00;99.90;;;;;;5106368;28;20212;-86
2021/03/07 07:05:37;;;;;;;4.85;3.05;;;-0.90;99.90;;;;;;5117698;28;20212;-86
2021/03/07 07:08:04;;;;;;;15.38;4.38;;;;;;;;;;5115108;28;20192;-87
2021/03/07 07:10:30;;;;;;;4.15;3.75;;;;;;;;;;5116544;28;20222;-86
2021/03/07 07:13:05;;;;;;;6.78;4.38;;;-0.50;99.80;;;;;;5119349;28;20209;-85
2021/03/07 07:15:31;;;;;;;4.38;3.67;;;;;;;;;;5120243;28;20203;-87
2021/03/07 07:17:58;;;;;;;4.90;3.17;;;;;;;;;;5116834;28;20201;-86
2021/03/07 07:20:25;;;;;;;5.30;3.65;;;;;;;;;;5085471;28;20201;-86
2021/03/07 07:22:51;;;;;;;5.28;3.40;;;-0.30;99.90;;;;;;5081865;28;20197;-85
2021/03/07 07:25:19;;;;;;;5.60;3.65;;;-0.30;98.80;;;;;;5082280;28;20210;-85
2021/03/07 07:27:45;;;;;;;10.32;4.22;;;-0.10;98.40;;;;;;5082750;28;20225;-86
2021/03/07 07:30:14;;;;;;;5.00;3.47;;;0.30;99.90;;;;;;5083002;28;20296;-87
2021/03/07 07:32:44;;;;;;;7.22;4.97;;;0.20;98.10;;;;;;5081209;28;20263;-86
2021/03/07 07:35:18;;;;;;;3.75;3.45;;;0.70;99.10;;;;;;5080855;28;20649;-86
2021/03/07 07:37:48;;;;;;;6.50;4.47;;;0.50;97.80;;;;;;5080088;28;20210;-87
2021/03/07 07:40:15;;;;;;;6.20;4.20;;;;;;;;;;5079408;28;20236;-86
2021/03/07 07:42:56;;;;;;;7.22;4.88;;;0.80;97.60;;;;;;5079806;28;20197;-88
2021/03/07 07:45:25;;;;;;;6.88;3.50;;;0.80;97.70;;;;;;5080075;28;20255;-88
2021/03/07 07:47:53;;;;;;;6.18;3.42;;;1.00;97.30;;;;;;5080895;28;20206;-86
2021/03/07 07:50:36;;;;;;;10.73;6.50;;;1.10;97.10;;;;;;5098270;28;20219;-87
2021/03/07 07:53:05;;;;;;;8.85;4.57;;;1.10;96.90;;;;;;5099482;28;20213;-87
2021/03/07 07:55:46;;;;;;;7.75;5.95;;;1.40;99.90;;;;;;5100169;28;20263;-87
2021/03/07 07:58:46;;;;;;;5.40;4.57;;;1.40;96.40;;;;;;5099419;28;20205;-88
2021/03/07 08:01:14;;;;;;;9.88;5.28;;;1.70;96.70;;;;;;5100191;28;20686;-85
2021/03/07 08:03:42;;;;;;;4.80;3.22;;;1.60;96.70;;;;;;5098978;28;20604;-86
2021/03/07 08:06:10;;;;;;;5.07;4.15;;;1.60;96.60;;;;;;5098858;28;20209;-85
2021/03/07 08:08:37;;;;;;;8.02;3.88;;;1.80;96.70;;;;;;5099126;28;20210;-87
2021/03/07 08:11:05;;;;;;;6.85;3.47;;;1.80;96.40;;;;;;5096542;28;20569;-86
2021/03/07 08:13:47;;;;;;;7.40;4.55;;;2.10;96.00;;;;;;5094532;28;20233;-87
2021/03/07 08:16:36;;;;;;;4.93;4.47;;;2.10;95.90;;;;;;5098419;28;20228;-89
2021/03/07 08:19:03;;;;;;;6.57;4.57;;;2.20;95.40;;;;;;5097645;28;20205;-89
2021/03/07 08:21:29;;;;;;;4.47;4.05;;;2.30;95.00;;;;;;5097668;28;20216;-85
2021/03/07 08:23:58;;;;;;;8.65;4.93;;;2.50;99.90;;;;;;5095370;28;20215;-86
2021/03/07 08:26:26;;;;;;;4.20;3.60;;;3.10;99.90;;;;;;5097371;28;20201;-84
2021/03/07 08:28:53;;;;;;;6.82;3.80;;;2.60;98.20;;;;;;5094532;28;20247;-86
2021/03/07 08:31:36;;;;;;;6.45;4.20;;;4.10;95.80;;;;;;5095792;28;20236;-84
2021/03/07 08:34:22;;;;;;;6.20;4.47;;;2.80;94.40;;;;;;5097050;28;20269;-88
2021/03/07 08:36:58;;;;;;;5.75;4.50;;;3.10;94.10;;;;;;5096134;28;20714;-89
2021/03/07 08:39:25;;;;;;;5.82;4.43;;;3.10;94.40;;;;;;5095870;28;20201;-83
2021/03/07 08:42:05;;;;;;;3.63;3.25;;;3.30;94.20;;;;;;5096017;28;20292;-83
2021/03/07 08:44:32;;;;;;;4.68;3.72;;;3.40;99.70;;;;;;5094358;28;20240;-83
2021/03/07 08:47:01;;;;;;;6.45;3.97;;;3.60;94.00;;;;;;5095549;28;20216;-85
2021/03/07 08:49:30;;;;;;;5.45;3.72;;;3.70;98.60;;;;;;5094631;28;20288;-80
2021/03/07 08:52:03;;;;;;;4.95;3.10;;;3.60;98.10;;;;;;5095329;28;20236;-80
2021/03/07 08:54:32;;;;;;;4.40;3.70;;;3.60;98.20;;;;;;5095120;28;20232;-82
2021/03/07 08:57:04;;;;;;;6.10;3.25;;;3.70;92.20;;;;;;5094990;28;20319;-80
2021/03/07 08:59:33;;;;;;;2.83;2.45;;;3.70;92.60;;;;;;5093080;28;20201;-81
2021/03/07 09:02:02;;;;;;;2.80;2.50;;;3.80;92.40;;;;;;5095251;28;20201;-85
2021/03/07 09:04:37;;;;;;;6.00;3.88;;;3.80;92.00;;;;;;5094915;28;20570;-87
2021/03/07 09:07:05;;;;;;;5.90;4.43;;;3.90;92.60;;;;;;5097453;27;20303;-86
2021/03/07 09:09:31;;;;;;;12.07;5.60;;;3.90;91.50;;;;;;5099200;28;20236;-85
2021/03/07 09:12:01;;;;;;;7.75;4.60;;;3.90;91.50;;;;;;5096208;28;20204;-86
2021/03/07 09:14:31;;;;;;;7.20;4.68;;;4.00;91.10;;;;;;5087154;28;20201;-86
2021/03/07 09:16:59;;;;;;;6.15;4.90;;;3.80;97.00;;;;;;5074492;28;20256;-86
2021/03/07 09:19:32;;;;;;;6.53;4.13;;;4.00;92.10;;;;;;5074636;28;20855;-86
2021/03/07 09:22:20;;;;;;;6.30;4.60;;;4.70;93.80;;;;;;5074365;28;20668;-87
2021/03/07 09:24:56;;;;;;;5.53;4.25;;;4.20;91.40;;;;;;5074739;28;20632;-87
2021/03/07 09:27:23;;;;;;;6.13;4.15;;;4.70;94.90;;;;;;5074169;28;20201;-85
2021/03/07 09:30:02;;;;;;;5.88;3.60;;;4.50;91.30;;;;;;5072683;28;20197;-87
2021/03/07 09:32:31;;;;;;;7.47;5.13;;;4.70;91.10;;;;;;5074760;28;20676;-84
2021/03/07 09:35:00;;;;;;;5.63;4.07;;;4.80;91.40;;;;;;5074944;28;20220;-85
2021/03/07 09:37:28;;;;;;;6.93;4.68;;;6.00;92.20;;;;;;5074071;28;20324;-87
2021/03/07 09:39:55;;;;;;;6.80;4.72;;;5.10;91.10;;;;;;5076481;28;20625;-84
2021/03/07 09:42:22;;;;;;;6.50;5.25;;;5.20;91.10;;;;;;5074757;28;20288;-86
2021/03/07 09:44:49;;;;;;;6.85;5.65;;;5.30;91.20;;;;;;5072239;28;20579;-83
2021/03/07 09:47:18;;;;;;;7.93;5.28;;;5.30;91.60;;;;;;5074332;28;20292;-83
2021/03/07 09:49:46;;;;;;;7.47;5.10;;;5.70;91.70;;;;;;5081237;28;20280;-83
2021/03/07 09:52:15;;;;;;;8.48;5.03;;;5.50;91.10;;;;;;5094146;28;20201;-84
2021/03/07 09:54:56;;;;;;;7.25;5.55;;;5.60;91.20;;;;;;5094137;28;20304;-83
2021/03/07 09:57:24;;;;;;;8.23;5.65;;;5.70;91.20;;;;;;5092042;28;20318;-82
2021/03/07 09:59:52;;;;;;;10.57;7.28;;;5.80;91.10;;;;;;5092105;28;20292;-80
2021/03/07 10:02:19;;;;;;;10.30;6.32;;;6.20;91.40;;;;;;5094040;28;20212;-82
2021/03/07 10:04:46;;;;;;;9.30;4.70;;;6.00;91.40;;;;;;5094088;28;20262;-81
2021/03/07 10:07:26;;;;;;;5.85;5.07;;;6.00;95.00;;;;;;5094027;28;20201;-83
2021/03/07 10:10:00;;;;;;;9.32;7.03;;;6.10;91.10;;;;;;5095369;28;20236;-85
2021/03/07 10:12:40;;;;;;;9.85;5.93;;;6.20;91.60;;;;;;5093626;28;20287;-85
2021/03/07 10:15:10;;;;;;;7.03;5.22;;;6.20;90.80;;;;;;5094000;28;20287;-89
2021/03/07 10:17:41;;;;;;;11.20;7.00;;;6.30;90.60;;;;;;5094331;28;20229;-87
2021/03/07 10:20:10;;;;;;;8.65;5.45;;;7.90;91.60;;;;;;5089280;28;20197;-84
2021/03/07 10:22:40;;;;;;;7.97;5.22;;;6.80;91.10;;;;;;5094312;28;20261;-84
2021/03/07 10:25:20;;;;;;;6.78;5.40;;;6.50;89.80;;;;;;5093773;28;20293;-84
2021/03/07 10:27:53;;;;;;;8.23;5.90;;;6.90;88.90;;;;;;5093702;28;20315;-86
2021/03/07 10:30:28;;;;;;;7.63;5.53;;;7.00;89.10;;;;;;5092087;28;20679;-85
2021/03/07 10:33:16;;;;;;;7.93;5.95;;;7.00;94.80;;;;;;5093867;28;20204;-85
2021/03/07 10:35:59;;;;;;;8.25;6.18;;;7.10;90.40;;;;;;5093489;28;20315;-85
2021/03/07 10:38:27;;;;;;;9.85;6.63;;;7.40;90.00;;;;;;5093608;28;20232;-84
2021/03/07 10:40:54;;;;;;;12.00;8.27;;;;;;;;;;5093019;28;20968;-83
2021/03/07 10:43:22;;;;;;;11.60;7.95;;;7.40;90.00;;;;;;5090600;28;20482;-84
2021/03/07 10:45:49;;;;;;;11.67;7.57;;;7.10;90.40;;;;;;5093494;28;20296;-84
2021/03/07 10:48:16;;;;;;;8.10;7.30;;;7.70;90.90;;;;;;5092475;28;20478;-84
2021/03/07 10:50:44;;;;;;;9.10;7.70;;;7.20;91.90;;;;;;5074415;28;20458;-84
2021/03/07 10:53:11;;;;;;;7.93;6.95;;;7.40;90.40;;;;;;5090829;28;20185;-84
2021/03/07 10:55:38;;;;;;;8.27;6.50;;;7.30;90.40;;;;;;5089718;28;20290;-85
2021/03/07 10:58:06;;;;;;;10.80;7.72;;;7.40;90.50;;;;;;5075018;28;20479;-85
2021/03/07 11:00:32;;;;;;;10.55;7.85;;;7.80;90.80;;;;;;5097955;28;20197;-86
2021/03/07 11:02:59;;;;;;;11.67;8.03;;;7.90;90.10;;;;;;5115174;28;20200;-83
2021/03/07 11:05:25;;;;;;;12.30;8.40;;;8.30;89.00;;;;;;5107993;28;20443;-84
2021/03/07 11:07:52;;;;;;;9.80;7.07;;;8.30;87.80;;;;;;5096199;28;20478;-84
2021/03/07 11:10:20;;;;;;;11.63;7.07;;;8.30;87.70;;;;;;5095605;28;20536;-82
2021/03/07 11:12:48;;;;;;;9.65;6.60;;;8.00;87.40;;;;;;5093546;28;20530;-83
2021/03/07 11:15:14;;;;;;;9.07;6.47;;;7.90;87.70;;;;;;5092394;28;20390;-85
2021/03/07 11:17:41;;;;;;;10.38;6.28;;;8.00;88.80;;;;;;5093099;28;20233;-81
2021/03/07 11:20:10;;;;;;;9.27;7.10;;;8.00;88.80;;;;;;5073037;28;20296;-88
2021/03/07 11:22:37;;;;;;;13.65;7.55;;;8.00;89.40;;;;;;5074127;28;20484;-87
2021/03/07 11:25:05;;;;;;;8.30;7.18;;;8.10;88.20;;;;;;5073389;28;20205;-85
2021/03/07 11:27:32;;;;;;;9.93;6.78;;;8.10;88.40;;;;;;5073295;28;20228;-86
2021/03/07 11:29:59;;;;;;;9.55;7.00;;;8.00;88.60;;;;;;5071967;28;20233;-84
2021/03/07 11:32:26;;;;;;;10.15;6.95;;;7.80;89.80;;;;;;5082360;28;20236;-85
2021/03/07 11:34:52;;;;;;;10.55;6.38;;;7.90;88.40;;;;;;5093199;28;20288;-81
2021/03/07 11:37:18;;;;;;;7.90;5.55;;;8.00;87.50;;;;;;5092695;28;20323;-82
2021/03/07 11:39:45;;;;;;;9.43;6.63;;;8.10;86.30;;;;;;5093109;28;20204;-82
2021/03/07 11:42:12;;;;;;;8.93;7.87;;;8.10;86.10;;;;;;5093833;28;20619;-83
2021/03/07 11:44:38;;;;;;;10.25;7.43;;;8.20;85.70;;;;;;5091615;28;20531;-82
2021/03/07 11:47:06;;;;;;;10.47;7.10;;;8.20;85.60;;;;;;5092181;28;20292;-81
2021/03/07 11:49:33;;;;;;;9.23;7.18;;;8.00;85.50;;;;;;5092814;28;20451;-81
2021/03/07 11:51:59;;;;;;;12.30;7.33;;;8.10;85.40;;;;;;5093344;28;20203;-81
2021/03/07 11:54:26;;;;;;;8.77;7.10;;;8.30;85.20;;;;;;5093079;28;20463;-81
2021/03/07 11:56:52;;;;;;;10.55;7.05;;;8.40;85.00;;;;;;5095501;28;20242;-80
2021/03/07 11:59:18;;;;;;;11.30;7.60;;;8.40;85.30;;;;;;5096374;28;20295;-82
2021/03/07 12:01:45;;;;;;;8.67;7.33;;;8.50;85.40;;;;;;5096444;28;20550;-83
2021/03/07 12:04:12;;;;;;;9.37;6.87;;;8.60;85.50;;;;;;5098686;28;20538;-87
2021/03/07 12:06:38;;;;;;;10.20;6.87;;;8.60;84.40;;;;;;5100836;28;20493;-83
2021/03/07 12:09:05;;;;;;;13.83;7.67;;;8.70;84.20;;;;;;5106962;28;20458;-83
2021/03/07 12:11:31;;;;;;;9.30;6.63;;;8.60;88.30;;;;;;5119416;28;20426;-85
2021/03/07 12:13:58;;;;;;;9.63;6.60;;;8.70;84.50;;;;;;5115438;28;20467;-83
2021/03/07 12:16:24;;;;;;;8.63;6.97;;;8.60;83.20;;;;;;5114219;28;20509;-87
2021/03/07 12:18:51;;;;;;;10.85;7.35;;;;;;;;;;5097501;28;20490;-84
2021/03/07 12:21:18;;;;;;;9.67;7.50;;;8.40;83.00;;;;;;5097995;28;20287;-84
2021/03/07 12:23:45;;;;;;;10.33;7.47;;;8.40;84.80;;;;;;5097370;28;20538;-87
2021/03/07 12:26:11;;;;;;;7.37;6.10;;;8.40;83.80;;;;;;5096189;28;20459;-87
2021/03/07 12:28:38;;;;;;;9.05;7.10;;;8.20;85.20;;;;;;5094965;28;20511;-90
2021/03/07 12:31:04;;;;;;;7.53;6.23;;;8.20;85.00;;;;;;5096333;28;20288;-82
2021/03/07 12:33:30;;;;;;;10.18;7.97;;;8.00;85.50;;;;;;5095573;28;20454;-85
2021/03/07 12:35:57;;;;;;;7.60;6.35;;;8.30;84.80;;;;;;5095753;28;20762;-88
2021/03/07 12:38:24;;;;;;;10.97;7.23;;;8.20;91.30;;;;;;5095542;28;20243;-82
2021/03/07 12:40:51;;;;;;;9.27;6.40;;;8.40;84.00;;;;;;5096073;28;20453;-89
2021/03/07 12:43:17;;;;;;;10.70;7.60;;;8.30;83.00;;;;;;5095746;28;20878;-85
2021/03/07 12:45:44;;;;;;;9.80;7.20;;;8.50;83.60;;;;;;5095910;28;20626;-88
2021/03/07 12:48:11;;;;;;;12.00;6.43;;;8.20;86.50;;;;;;5095790;28;20443;-87
2021/03/07 12:50:37;;;;;;;8.73;6.67;;;8.40;84.00;;;;;;5096417;28;20209;-85
2021/03/07 12:53:04;;;;;;;8.30;5.70;;;8.40;82.00;;;;;;5095916;28;20537;-89
2021/03/07 12:55:31;;;;;;;10.73;7.23;;;8.40;82.00;;;;;;5095894;28;20885;-87
2021/03/07 12:57:58;;;;;;;8.17;6.80;;;8.30;88.10;;;;;;5097664;28;20582;-87
2021/03/07 13:00:26;;;;;;;10.47;6.60;;;8.50;82.80;;;;;;5095350;28;20538;-91
2021/03/07 13:02:53;;;;;;;7.67;6.07;;;8.40;81.40;;;;;;5097559;28;20557;-86
2021/03/07 13:05:20;;;;;;;10.02;7.03;;;8.50;82.00;;;;;;5096393;28;20542;-85
2021/03/07 13:07:46;;;;;;;12.00;6.83;;;8.60;81.40;;;;;;5096182;28;20613;-87
2021/03/07 13:10:14;;;;;;;10.67;7.53;;;8.50;81.60;;;;;;5095370;28;20510;-83
2021/03/07 13:12:42;;;;;;;11.67;7.37;;;8.60;82.70;;;;;;5095473;28;20461;-83
2021/03/07 13:15:10;;;;;;;11.10;7.77;;;8.70;81.20;;;;;;5091093;28;20447;-85
2021/03/07 13:17:36;;;;;;;8.77;6.90;;;8.70;82.10;;;;;;5084345;28;20581;-88
2021/03/07 13:20:04;;;;;;;7.33;5.23;;;8.50;83.20;;;;;;5074996;28;20547;-81
2021/03/07 13:22:30;;;;;;;8.70;6.47;;;8.40;83.00;;;;;;5074817;28;20535;-83